메인 페이지
METAR-TAF:

METAR-TAF

공항 :

야운데, 카메룬

위도: 03-50N, 경도: 011-31E, 고도: 751m

현재 날씨관측

예보는 59분 전, 00:00시(UTC)에 발표되었습니다.
온도 23°C
습도 94%
기압 1019 hPa
시정: 7000m
고도 600ft 상공 구름 많음

METAR: FKYS 100000Z /////KT 7000 BKN006 23/22 Q1019 NOSIG

시각: 01:59 (00:59 UTC)

예보

예보는 1 시간 59분 전, 23:00시(UTC)에 발표되었습니다.
예보 대상 시간: 10일 00시부터 10일 24시까지 (UTC)
여러 방향의 바람 3kt
시정: 7000m
고도 600ft 상공 구름 많음
확률 40%
10일 03시부터 10일 08시까지 (UTC)
시정: 3000m
박무
전환 중
10일 08시부터 10일 10시까지 (UTC)
고도 1600ft 상공 구름 많음
전환 중
10일 22시부터 10일 24시까지 (UTC)
고도 600ft 상공 구름 많음

TAF: FKYS 092300Z 1000/1024 VRB03KT 7000 BKN006 PROB40 1003/1008 3000 BR BECMG 1008/1010 BKN016 BECMG 1022/1024 BKN006

4,000개 이상의 공항 관측 자료 및 예보 (METAR 및 TAF 보고).

지도상에서 검색 가능한 기상관측소가 노란 점과 빨간 점으로 표시되어 있습니다.

기상관측소 명을 보려면 표시 위로 마우스를 이동하세요.

날씨 관측과 예보를 보려면 클릭하세요.

지도 변경 : 확대하려면 엑스 표시가 있는 녹색 버튼, 축소하려면 빼기 표시가 있는 녹색 버튼, 다음 페이지의 지도를 보려면 녹색 화살표를 클릭하세요.


METAR-TAF: